Sundown, Texas
Current Conditions -  °F | °C
As of 4:53 PM on Monday 20 Oct 2014 (Local Time) from KLBB Reporting Station
Few Clouds Few Clouds  
Wind Chill: 76°   Ceiling: Unl
Heat Index: 76°   Visibility: 10mi
Dew Point: 54°   Wind: 9mph
Humidity: 46%   Direction: 130°SE
Pressure: 30.06"   Gusts: NA
Location:  33.46°N, 102.49°W
Report Text: KLBB 202153Z 13008KT 10SM FEW048TCU FEW300 24/12 A3006 RMK AO2 SLP142 CB DSNT NW-NE AND SE MOV NW TCU S AND W T02440122
Loading
Personal Weather Stations






























Interactive Weather Map
Tropical Storm Tracking
New forecast layout! Learn more

10-Day Weather Forecast

Advertisements
Track Severe Weather on mobile